Terminal Aerodrome Forecast
Issued by NWS

Home | Current Version | Previous Version | Text Only | Print | Product List | Glossary On
Versions: 1 2 3 4 5 6 7 8 9 10 11 12 13 14
000
FTUS43 KMPX 261120
TAFAXN
TAF
KAXN 261120Z 2612/2712 30012KT P6SM BKN090
     FM261500 35018G26KT P6SM FEW250
     FM270100 32010KT P6SM SKC
     FM270400 24005KT P6SM FEW250
     FM270900 25010KT P6SM SCT100 WS020/29035KT=

USA.gov is the U.S. government's official web portal to all federal, state and local government web resources and services.